createdAt,value
2023-05-22T00:00:00.044Z,17.99
2023-05-22T00:02:28.453Z,17.97
2023-05-22T00:05:00.912Z,17.98
2023-05-22T00:07:29.065Z,18.01
2023-05-22T00:09:57.371Z,18.09
2023-05-22T00:12:25.432Z,18.06
2023-05-22T00:14:57.133Z,18.12
2023-05-22T00:17:26.544Z,18.10
2023-05-22T00:19:56.740Z,18.13
2023-05-22T00:22:25.119Z,18.15
2023-05-22T00:24:53.191Z,18.20
2023-05-22T00:27:21.305Z,18.19
2023-05-22T00:29:49.316Z,18.14
2023-05-22T00:32:18.936Z,18.10
2023-05-22T00:34:49.389Z,18.06
2023-05-22T00:37:17.825Z,17.95
2023-05-22T00:39:45.928Z,17.81
2023-05-22T00:42:14.147Z,17.81
2023-05-22T00:44:42.994Z,17.79
2023-05-22T00:47:11.280Z,17.79
2023-05-22T00:49:40.997Z,17.74
2023-05-22T00:52:09.732Z,17.82
2023-05-22T00:54:38.801Z,17.76
2023-05-22T00:57:07.599Z,17.79
2023-05-22T00:59:36.936Z,17.77
2023-05-22T01:02:05.304Z,17.79
2023-05-22T01:04:33.613Z,17.77
2023-05-22T01:07:03.244Z,17.70
2023-05-22T01:09:31.871Z,17.73
2023-05-22T01:12:09.324Z,17.68
2023-05-22T01:14:44.336Z,17.71
2023-05-22T01:17:22.997Z,17.70
2023-05-22T01:20:06.969Z,17.67
2023-05-22T01:23:20.943Z,17.60
2023-05-22T01:26:13.887Z,17.67
2023-05-22T01:29:14.702Z,17.57
2023-05-22T01:31:46.903Z,17.53
2023-05-22T01:34:17.404Z,17.56
2023-05-22T01:36:47.869Z,17.52
2023-05-22T01:39:17.150Z,17.55
2023-05-22T01:41:45.775Z,17.57
2023-05-22T01:44:13.902Z,17.56
2023-05-22T01:46:43.367Z,17.49
2023-05-22T01:49:11.572Z,17.42
2023-05-22T01:51:47.117Z,17.33
2023-05-22T01:54:20.146Z,17.26
2023-05-22T01:56:52.276Z,17.27
2023-05-22T01:59:28.058Z,17.27
2023-05-22T02:02:04.501Z,17.26
2023-05-22T02:04:33.876Z,17.24
2023-05-22T02:07:03.518Z,17.22
2023-05-22T02:09:32.581Z,17.13
2023-05-22T02:12:01.819Z,17.13
2023-05-22T02:14:30.895Z,17.15
2023-05-22T02:17:02.215Z,17.17
2023-05-22T02:19:35.776Z,17.21
2023-05-22T02:22:04.169Z,17.20
2023-05-22T02:24:32.953Z,17.16
2023-05-22T02:27:01.604Z,17.12
2023-05-22T02:29:29.697Z,17.10
2023-05-22T02:32:01.716Z,16.99
2023-05-22T02:34:32.934Z,16.98
2023-05-22T02:37:03.637Z,16.99
2023-05-22T02:39:31.836Z,17.01
2023-05-22T02:41:59.917Z,16.97
2023-05-22T02:44:28.044Z,16.96
2023-05-22T02:46:56.262Z,16.94
2023-05-22T02:49:25.764Z,16.93
2023-05-22T02:51:53.869Z,16.87
2023-05-22T02:54:21.954Z,16.70
2023-05-22T02:56:50.206Z,16.71
2023-05-22T02:59:18.261Z,16.68
2023-05-22T03:01:48.495Z,16.67
2023-05-22T03:04:16.765Z,16.65
2023-05-22T03:06:46.409Z,16.66
2023-05-22T03:09:14.564Z,16.50
2023-05-22T03:11:42.660Z,16.38
2023-05-22T03:14:10.835Z,16.34
2023-05-22T03:16:39.089Z,16.33
2023-05-22T03:19:11.466Z,16.35
2023-05-22T03:21:40.579Z,16.34
2023-05-22T03:24:11.195Z,16.30
2023-05-22T03:26:39.763Z,16.28
2023-05-22T03:29:07.961Z,16.24
2023-05-22T03:31:36.306Z,16.15
2023-05-22T03:34:05.916Z,16.19
2023-05-22T03:36:35.168Z,16.19
2023-05-22T03:39:03.692Z,16.23
2023-05-22T03:41:33.155Z,16.11
2023-05-22T03:44:01.246Z,16.02
2023-05-22T03:46:29.650Z,15.93
2023-05-22T03:48:57.944Z,15.89
2023-05-22T03:51:25.997Z,15.92
2023-05-22T03:53:54.089Z,15.88
2023-05-22T03:56:22.301Z,15.92
2023-05-22T03:58:51.804Z,15.89
2023-05-22T04:01:19.876Z,15.89
2023-05-22T04:03:48.105Z,15.74
2023-05-22T04:06:16.333Z,15.74
2023-05-22T04:08:44.417Z,15.79
2023-05-22T04:11:15.862Z,15.80
2023-05-22T04:13:44.210Z,15.78
2023-05-22T04:16:13.694Z,15.77
2023-05-22T04:18:41.884Z,15.78
2023-05-22T04:21:10.003Z,15.76
2023-05-22T04:23:38.681Z,15.71
2023-05-22T04:26:08.855Z,15.67
2023-05-22T04:28:38.040Z,15.69
2023-05-22T04:31:07.595Z,15.70
2023-05-22T04:33:40.372Z,15.71
2023-05-22T04:36:12.361Z,15.69
2023-05-22T04:38:41.489Z,15.74
2023-05-22T04:41:13.577Z,15.70
2023-05-22T04:43:41.790Z,15.67
2023-05-22T04:46:09.936Z,15.63
2023-05-22T04:48:40.271Z,15.66
2023-05-22T04:51:08.482Z,15.66
2023-05-22T04:53:38.659Z,15.66
2023-05-22T04:56:08.142Z,15.68
2023-05-22T04:58:37.944Z,15.69
2023-05-22T05:01:06.302Z,15.67
2023-05-22T05:03:35.752Z,15.69
2023-05-22T05:06:08.493Z,15.70
2023-05-22T05:08:36.781Z,15.75
2023-05-22T05:11:04.929Z,15.78
2023-05-22T05:13:33.004Z,15.80
2023-05-22T05:16:01.431Z,15.75
2023-05-22T05:18:29.578Z,15.80
2023-05-22T05:20:57.744Z,15.85
2023-05-22T05:23:30.234Z,15.89
2023-05-22T05:25:58.329Z,15.93
2023-05-22T05:28:26.443Z,15.96
2023-05-22T05:30:54.542Z,15.97
2023-05-22T05:33:22.690Z,15.97
2023-05-22T05:35:53.740Z,16.00
2023-05-22T05:38:21.854Z,16.06
2023-05-22T05:40:51.264Z,16.04
2023-05-22T05:43:20.228Z,16.04
2023-05-22T05:45:48.434Z,16.14
2023-05-22T05:48:16.766Z,16.21
2023-05-22T05:50:44.945Z,16.28
2023-05-22T05:53:13.138Z,16.26
2023-05-22T05:55:41.488Z,16.30
2023-05-22T05:58:10.993Z,16.33
2023-05-22T06:00:39.401Z,16.37
2023-05-22T06:03:07.688Z,16.30
2023-05-22T06:05:35.830Z,16.43
2023-05-22T06:08:04.487Z,16.51
2023-05-22T06:10:32.713Z,16.51
2023-05-22T06:13:00.938Z,16.50
2023-05-22T06:15:31.566Z,16.63
2023-05-22T06:17:59.911Z,16.68
2023-05-22T06:20:28.033Z,16.71
2023-05-22T06:22:58.307Z,16.72
2023-05-22T06:25:30.016Z,16.81
2023-05-22T06:27:58.141Z,16.94
2023-05-22T06:30:38.925Z,16.90
2023-05-22T06:33:10.269Z,16.98
2023-05-22T06:35:38.684Z,17.15
2023-05-22T06:38:06.840Z,17.35
2023-05-22T06:40:35.020Z,17.42
2023-05-22T06:43:03.167Z,17.52
2023-05-22T06:45:34.515Z,17.64
2023-05-22T06:48:02.658Z,17.79
2023-05-22T06:50:32.403Z,17.93
2023-05-22T06:53:00.738Z,18.05
2023-05-22T06:55:31.421Z,18.20
2023-05-22T06:57:59.687Z,18.33
2023-05-22T07:00:28.131Z,18.40
2023-05-22T07:02:56.382Z,18.52
2023-05-22T07:05:24.727Z,18.68
2023-05-22T07:07:54.375Z,18.83
2023-05-22T07:10:22.736Z,18.94
2023-05-22T07:12:50.858Z,18.95
2023-05-22T07:15:18.997Z,19.10
2023-05-22T07:17:47.134Z,19.28
2023-05-22T07:20:16.858Z,19.42
2023-05-22T07:22:47.183Z,19.57
2023-05-22T07:25:16.719Z,19.76
2023-05-22T07:27:44.909Z,19.91
2023-05-22T07:30:14.070Z,20.04
2023-05-22T07:32:42.285Z,20.17
2023-05-22T07:35:11.919Z,20.33
2023-05-22T07:37:39.985Z,20.46
2023-05-22T07:40:09.976Z,20.41
2023-05-22T07:42:39.599Z,20.65
2023-05-22T07:45:08.683Z,20.87
2023-05-22T07:47:36.807Z,21.07
2023-05-22T07:50:05.812Z,21.36
2023-05-22T07:52:33.974Z,21.41
2023-05-22T07:55:02.149Z,21.64
2023-05-22T07:57:30.774Z,21.88
2023-05-22T08:00:00.531Z,22.20
2023-05-22T08:02:28.822Z,22.34
2023-05-22T08:04:57.178Z,22.49
2023-05-22T08:07:25.374Z,22.63
2023-05-22T08:09:53.553Z,22.58
2023-05-22T08:12:21.765Z,22.54
2023-05-22T08:14:49.944Z,22.82
2023-05-22T08:17:19.551Z,23.03
2023-05-22T08:19:47.889Z,23.29
2023-05-22T08:22:16.172Z,23.44
2023-05-22T08:24:47.156Z,23.55
2023-05-22T08:27:18.203Z,23.37
2023-05-22T08:29:46.366Z,23.53
2023-05-22T08:32:14.554Z,23.84
2023-05-22T08:34:46.198Z,23.92
2023-05-22T08:37:16.961Z,24.16
2023-05-22T08:39:45.178Z,24.35
2023-05-22T08:42:13.480Z,24.45
2023-05-22T08:44:41.734Z,24.51
2023-05-22T08:47:11.303Z,24.78
2023-05-22T08:49:41.080Z,25.04
2023-05-22T08:52:14.559Z,25.33
2023-05-22T08:54:44.306Z,25.67
2023-05-22T08:57:15.572Z,25.29
2023-05-22T08:59:46.902Z,25.28
2023-05-22T09:02:15.500Z,25.23
2023-05-22T09:04:45.881Z,25.55
2023-05-22T09:07:15.427Z,25.84
2023-05-22T09:09:43.613Z,26.25
2023-05-22T09:12:12.024Z,26.32
2023-05-22T09:14:40.583Z,26.59
2023-05-22T09:17:10.079Z,26.78
2023-05-22T09:19:38.567Z,26.84
2023-05-22T09:22:07.492Z,27.18
2023-05-22T09:24:43.307Z,27.36
2023-05-22T09:27:12.908Z,27.25
2023-05-22T09:29:58.986Z,27.46
2023-05-22T09:32:31.740Z,27.65
2023-05-22T09:35:05.158Z,27.81
2023-05-22T09:37:35.489Z,27.92
2023-05-22T09:40:07.567Z,28.02
2023-05-22T09:42:36.174Z,27.91
2023-05-22T09:45:09.292Z,27.82
2023-05-22T09:47:37.434Z,27.74
2023-05-22T09:50:09.966Z,27.39
2023-05-22T09:52:39.195Z,27.73
2023-05-22T09:55:10.481Z,28.09
2023-05-22T09:57:44.279Z,27.93
2023-05-22T10:00:18.359Z,28.25
2023-05-22T10:02:51.749Z,28.41
2023-05-22T10:05:22.482Z,28.65
2023-05-22T10:07:52.055Z,28.90
2023-05-22T10:10:25.566Z,28.59
2023-05-22T10:12:57.552Z,28.50
2023-05-22T10:15:26.622Z,28.67
2023-05-22T10:17:59.261Z,28.89
2023-05-22T10:20:28.210Z,28.59
2023-05-22T10:22:57.696Z,28.72
2023-05-22T10:25:27.426Z,28.71
2023-05-22T10:27:56.999Z,28.78
2023-05-22T10:30:33.811Z,28.42
2023-05-22T10:33:08.530Z,28.23
2023-05-22T10:35:42.385Z,28.75
2023-05-22T10:38:41.640Z,28.87
2023-05-22T10:41:11.545Z,29.18
2023-05-22T10:43:42.179Z,29.30
2023-05-22T10:46:12.661Z,29.09
2023-05-22T10:48:41.845Z,29.15
2023-05-22T10:51:10.463Z,28.86
2023-05-22T10:53:38.515Z,28.84
2023-05-22T10:56:13.064Z,28.84
2023-05-22T10:58:45.185Z,29.02
2023-05-22T11:01:14.693Z,29.27
2023-05-22T11:03:59.915Z,29.28
2023-05-22T11:06:38.633Z,29.54
2023-05-22T11:09:28.961Z,29.72
2023-05-22T11:12:26.517Z,29.92
2023-05-22T11:14:56.739Z,30.13
2023-05-22T11:17:26.780Z,30.45
2023-05-22T11:20:02.609Z,30.60
2023-05-22T11:22:32.782Z,30.65
2023-05-22T11:25:01.259Z,30.63
2023-05-22T11:27:31.141Z,30.71
2023-05-22T11:30:01.338Z,30.50
2023-05-22T11:32:29.565Z,30.91
2023-05-22T11:34:58.757Z,31.23
2023-05-22T11:37:26.886Z,31.49
2023-05-22T11:39:57.982Z,31.50
2023-05-22T11:42:26.148Z,31.39
2023-05-22T11:44:56.633Z,31.52
2023-05-22T11:47:26.698Z,31.38
2023-05-22T11:49:55.386Z,31.05
2023-05-22T11:52:23.658Z,31.61
2023-05-22T11:54:53.784Z,31.44
2023-05-22T11:57:23.820Z,31.71
2023-05-22T11:59:52.063Z,31.82
2023-05-22T12:02:24.728Z,32.01
2023-05-22T12:04:55.604Z,31.95
2023-05-22T12:07:24.330Z,31.49
2023-05-22T12:09:52.701Z,30.92
2023-05-22T12:12:22.625Z,30.68
2023-05-22T12:14:51.155Z,29.91
2023-05-22T12:17:19.539Z,29.75
2023-05-22T12:19:49.009Z,29.34
2023-05-22T12:22:17.192Z,29.30
2023-05-22T12:24:47.222Z,28.90
2023-05-22T12:27:15.807Z,29.51
2023-05-22T12:29:44.514Z,29.91
2023-05-22T12:32:14.136Z,30.37
2023-05-22T12:34:46.611Z,30.32
2023-05-22T12:37:25.361Z,29.93
2023-05-22T12:39:57.822Z,30.29
2023-05-22T12:42:25.927Z,30.14
2023-05-22T12:45:00.664Z,30.12
2023-05-22T12:47:28.904Z,29.81
2023-05-22T12:49:57.141Z,29.66
2023-05-22T12:52:26.679Z,29.56
2023-05-22T12:54:54.758Z,29.64
2023-05-22T12:57:22.966Z,29.62
2023-05-22T12:59:51.056Z,29.69
2023-05-22T13:02:19.307Z,29.49
2023-05-22T13:04:47.490Z,29.89
2023-05-22T13:07:15.737Z,30.22
2023-05-22T13:09:45.289Z,30.36
2023-05-22T13:12:13.482Z,30.31
2023-05-22T13:14:41.667Z,30.09
2023-05-22T13:17:09.784Z,29.94
2023-05-22T13:19:38.262Z,29.70
2023-05-22T13:22:07.670Z,29.61
2023-05-22T13:24:35.882Z,29.57
2023-05-22T13:27:05.960Z,29.44
2023-05-22T13:29:34.184Z,29.34
2023-05-22T13:32:02.549Z,29.22
2023-05-22T13:34:31.410Z,29.16
2023-05-22T13:36:59.772Z,29.02
2023-05-22T13:39:27.876Z,28.76
2023-05-22T13:41:56.121Z,28.86
2023-05-22T13:44:25.858Z,28.83
2023-05-22T13:46:54.174Z,28.94
2023-05-22T13:49:22.410Z,29.03
2023-05-22T13:51:52.711Z,29.20
2023-05-22T13:54:20.864Z,29.53
2023-05-22T13:56:49.146Z,29.93
2023-05-22T13:59:17.256Z,29.83
2023-05-22T14:01:46.822Z,30.11
2023-05-22T14:04:15.124Z,30.13
2023-05-22T14:06:43.971Z,30.17
2023-05-22T14:09:12.092Z,29.88
2023-05-22T14:11:40.213Z,29.49
2023-05-22T14:14:08.479Z,29.13
2023-05-22T14:16:36.686Z,28.93
2023-05-22T14:19:06.466Z,27.80
2023-05-22T14:21:34.679Z,27.43
2023-05-22T14:24:04.529Z,26.91
2023-05-22T14:26:32.907Z,26.31
2023-05-22T14:29:01.243Z,25.92
2023-05-22T14:31:30.191Z,25.14
2023-05-22T14:33:58.345Z,24.43
2023-05-22T14:36:27.842Z,24.31
2023-05-22T14:38:57.182Z,24.17
2023-05-22T14:41:26.410Z,24.32
2023-05-22T14:43:54.580Z,23.54
2023-05-22T14:46:22.797Z,23.82
2023-05-22T14:48:50.985Z,24.01
2023-05-22T14:51:21.316Z,24.10
2023-05-22T14:53:50.813Z,24.06
2023-05-22T14:56:18.999Z,23.93
2023-05-22T14:58:49.961Z,24.00
2023-05-22T15:01:18.137Z,23.84
2023-05-22T15:03:46.292Z,24.22
2023-05-22T15:06:14.464Z,24.24
2023-05-22T15:08:42.600Z,24.16
2023-05-22T15:11:12.101Z,24.35
2023-05-22T15:13:40.376Z,24.33
2023-05-22T15:16:08.540Z,24.31
2023-05-22T15:18:36.655Z,24.62
2023-05-22T15:21:05.269Z,24.52
2023-05-22T15:23:33.445Z,24.48
2023-05-22T15:26:04.762Z,24.75
2023-05-22T15:28:34.186Z,24.94
2023-05-22T15:31:02.362Z,24.93
2023-05-22T15:33:30.877Z,24.90
2023-05-22T15:35:59.061Z,24.82
2023-05-22T15:38:28.200Z,24.74
2023-05-22T15:40:56.350Z,24.52
2023-05-22T15:43:27.400Z,24.57
2023-05-22T15:45:56.941Z,24.58
2023-05-22T15:48:25.022Z,24.43
2023-05-22T15:50:53.108Z,24.32
2023-05-22T15:53:22.137Z,24.38
2023-05-22T15:55:51.098Z,24.26
2023-05-22T15:58:19.297Z,24.31
2023-05-22T16:00:47.341Z,24.30
2023-05-22T16:03:17.010Z,24.29
2023-05-22T16:05:46.952Z,24.23
2023-05-22T16:08:15.536Z,24.27
2023-05-22T16:10:45.381Z,24.07
2023-05-22T16:13:14.304Z,24.33
2023-05-22T16:15:44.660Z,24.11
2023-05-22T16:18:13.051Z,24.14
2023-05-22T16:20:42.590Z,24.26
2023-05-22T16:23:10.869Z,24.31
2023-05-22T16:25:39.286Z,24.34
2023-05-22T16:28:07.645Z,24.60
2023-05-22T16:30:35.706Z,24.41
2023-05-22T16:33:03.920Z,24.55
2023-05-22T16:35:32.070Z,24.46
2023-05-22T16:38:01.829Z,24.77
2023-05-22T16:40:30.181Z,24.64
2023-05-22T16:42:58.298Z,24.64
2023-05-22T16:45:26.935Z,24.30
2023-05-22T16:47:56.084Z,24.24
2023-05-22T16:50:27.123Z,24.18
2023-05-22T16:52:55.204Z,24.14
2023-05-22T16:55:24.788Z,23.90
2023-05-22T16:57:52.892Z,24.01
2023-05-22T17:00:21.536Z,24.22
2023-05-22T17:02:49.730Z,24.13
2023-05-22T17:05:17.990Z,24.32
2023-05-22T17:07:46.178Z,24.33
2023-05-22T17:10:14.308Z,24.05
2023-05-22T17:12:43.924Z,23.70
2023-05-22T17:15:14.510Z,23.79
2023-05-22T17:17:42.692Z,23.79
2023-05-22T17:20:11.810Z,23.76
2023-05-22T17:22:40.177Z,23.65
2023-05-22T17:25:09.272Z,23.57
2023-05-22T17:27:37.400Z,23.65
2023-05-22T17:30:08.751Z,23.73
2023-05-22T17:32:37.151Z,23.72
2023-05-22T17:35:06.609Z,23.62
2023-05-22T17:37:35.280Z,23.63
2023-05-22T17:40:04.836Z,23.64
2023-05-22T17:42:33.010Z,23.60
2023-05-22T17:45:01.058Z,23.47
2023-05-22T17:47:30.744Z,23.37
2023-05-22T17:49:58.890Z,23.31
2023-05-22T17:52:27.095Z,23.16
2023-05-22T17:54:56.031Z,23.36
2023-05-22T17:57:24.100Z,23.29
2023-05-22T17:59:52.262Z,23.01
2023-05-22T18:02:22.656Z,23.11
2023-05-22T18:04:52.211Z,22.97
2023-05-22T18:07:20.386Z,22.54
2023-05-22T18:09:48.567Z,22.17
2023-05-22T18:14:50.470Z,22.35
2023-05-22T18:17:18.642Z,22.19
2023-05-22T18:19:46.838Z,22.29
2023-05-22T18:22:16.433Z,22.11
2023-05-22T18:24:44.630Z,21.80
2023-05-22T18:27:12.709Z,21.87
2023-05-22T18:29:40.800Z,21.58
2023-05-22T18:32:10.974Z,21.73
2023-05-22T18:34:39.154Z,21.49
2023-05-22T18:37:07.297Z,21.37
2023-05-22T18:39:37.404Z,21.34
2023-05-22T18:42:06.300Z,21.28
2023-05-22T18:44:34.400Z,21.00
2023-05-22T18:47:02.607Z,20.91
2023-05-22T18:49:33.086Z,20.90
2023-05-22T18:52:01.810Z,20.92
2023-05-22T18:54:29.935Z,20.81
2023-05-22T18:56:59.474Z,20.68
2023-05-22T18:59:27.659Z,20.54
2023-05-22T19:01:55.799Z,20.51
2023-05-22T19:04:23.967Z,20.48
2023-05-22T19:06:53.809Z,20.31
2023-05-22T19:09:22.368Z,20.19
2023-05-22T19:11:50.484Z,20.10
2023-05-22T19:14:20.100Z,19.94
2023-05-22T19:16:48.201Z,19.94
2023-05-22T19:19:16.615Z,19.81
2023-05-22T19:21:44.985Z,19.79
2023-05-22T19:24:13.062Z,19.63
2023-05-22T19:26:41.255Z,19.49
2023-05-22T19:29:09.368Z,19.40
2023-05-22T19:31:39.042Z,19.16
2023-05-22T19:34:07.302Z,19.13
2023-05-22T19:36:36.307Z,19.02
2023-05-22T19:39:04.552Z,19.02
2023-05-22T19:41:32.673Z,19.06
2023-05-22T19:44:00.814Z,18.96
2023-05-22T19:46:29.044Z,18.79
2023-05-22T19:48:58.619Z,18.75
2023-05-22T19:51:26.726Z,18.71
2023-05-22T19:53:54.879Z,18.45
2023-05-22T19:56:23.009Z,18.47
2023-05-22T19:58:51.146Z,18.48
2023-05-22T20:01:19.211Z,18.36
2023-05-22T20:03:47.512Z,18.32
2023-05-22T20:06:17.109Z,18.27
2023-05-22T20:08:45.294Z,18.22
2023-05-22T20:11:13.429Z,18.07
2023-05-22T20:13:44.483Z,18.09
2023-05-22T20:16:12.843Z,18.05
2023-05-22T20:18:44.699Z,18.05
2023-05-22T20:21:13.159Z,17.88
2023-05-22T20:23:42.693Z,17.78
2023-05-22T20:26:10.752Z,17.67
2023-05-22T20:28:39.040Z,17.56
2023-05-22T20:31:07.120Z,17.57
2023-05-22T20:33:35.261Z,17.45
2023-05-22T20:36:04.095Z,17.44
2023-05-22T20:38:34.771Z,17.28
2023-05-22T20:41:08.162Z,17.13
2023-05-22T20:43:37.751Z,17.13
2023-05-22T20:46:06.040Z,17.16
2023-05-22T20:48:34.203Z,17.21
2023-05-22T20:51:02.354Z,17.17
2023-05-22T20:53:30.554Z,16.98
2023-05-22T20:55:58.647Z,16.86
2023-05-22T20:58:28.221Z,16.69
2023-05-22T21:00:56.695Z,16.67
2023-05-22T21:03:25.930Z,16.75
2023-05-22T21:05:54.875Z,16.80
2023-05-22T21:08:22.997Z,16.76
2023-05-22T21:10:54.046Z,16.71
2023-05-22T21:13:22.500Z,16.72
2023-05-22T21:15:54.684Z,16.66
2023-05-22T21:18:22.773Z,16.69
2023-05-22T21:20:51.025Z,16.63
2023-05-22T21:23:19.190Z,16.64
2023-05-22T21:25:47.256Z,16.54
2023-05-22T21:28:15.583Z,16.47
2023-05-22T21:30:43.784Z,16.48
2023-05-22T21:33:13.381Z,16.41
2023-05-22T21:35:42.099Z,16.42
2023-05-22T21:38:13.499Z,16.35
2023-05-22T21:40:42.878Z,16.35
2023-05-22T21:43:11.257Z,16.32
2023-05-22T21:45:39.609Z,16.18
2023-05-22T21:48:07.889Z,16.19
2023-05-22T21:50:37.311Z,16.20
2023-05-22T21:53:05.507Z,16.11
2023-05-22T21:55:35.249Z,16.06
2023-05-22T21:58:03.397Z,16.09
2023-05-22T22:00:33.802Z,15.99
2023-05-22T22:03:02.015Z,15.96
2023-05-22T22:05:32.712Z,15.88
2023-05-22T22:08:02.247Z,15.91
2023-05-22T22:10:30.367Z,15.67
2023-05-22T22:13:02.460Z,15.58
2023-05-22T22:15:31.597Z,15.60
2023-05-22T22:18:02.342Z,15.49
2023-05-22T22:20:44.342Z,15.49
2023-05-22T22:23:15.308Z,15.53
2023-05-22T22:25:46.260Z,15.54
2023-05-22T22:28:14.366Z,15.50
2023-05-22T22:30:42.562Z,15.52
2023-05-22T22:33:11.665Z,15.34
2023-05-22T22:35:40.550Z,15.37
2023-05-22T22:38:08.818Z,15.37
2023-05-22T22:40:38.331Z,15.34
2023-05-22T22:43:06.597Z,15.32
2023-05-22T22:45:34.677Z,15.32
2023-05-22T22:48:03.580Z,15.22
2023-05-22T22:50:32.286Z,15.32
2023-05-22T22:53:03.093Z,15.33
2023-05-22T22:55:31.257Z,15.30
2023-05-22T22:58:01.950Z,15.25
2023-05-22T23:00:30.133Z,15.25
2023-05-22T23:02:58.276Z,15.09
2023-05-22T23:05:26.481Z,15.05
2023-05-22T23:07:54.852Z,15.19
2023-05-22T23:10:23.224Z,15.04
2023-05-22T23:12:51.261Z,15.13
2023-05-22T23:15:21.212Z,15.10
2023-05-22T23:17:51.579Z,15.10
2023-05-22T23:20:20.081Z,15.11
2023-05-22T23:22:48.287Z,15.06
2023-05-22T23:25:17.081Z,15.01
2023-05-22T23:27:45.187Z,14.98
2023-05-22T23:30:14.075Z,15.07
2023-05-22T23:32:43.625Z,15.07
2023-05-22T23:35:11.941Z,15.07
2023-05-22T23:37:40.256Z,15.02
2023-05-22T23:40:09.710Z,15.02
2023-05-22T23:42:37.909Z,15.08
2023-05-22T23:45:06.726Z,15.06
2023-05-22T23:47:34.888Z,15.08
2023-05-22T23:50:04.604Z,15.09
2023-05-22T23:52:32.729Z,15.09
2023-05-22T23:55:00.882Z,15.11
2023-05-22T23:57:29.027Z,15.10
2023-05-22T23:59:57.258Z,15.09
